Time;durP1;ratioP1;P1;durP2;ratioP2;P2;SDS_P1;SDS_P2;PMS_P1;PMS_P2;Temp;Humidity;BMP_temperature;BMP_pressure;BME280_temperature;BME280_humidity;BME280_pressure;Samples;Min_cycle;Max_cycle;Signal;HPM_P1;HPM_P2
2023/04/11 00:01:23;;;;;;;10.35;7.75;;;11.20;68.70;;;;;;5071423;28;20079;-63
2023/04/11 00:03:48;;;;;;;8.98;7.35;;;11.20;68.80;;;;;;5077181;28;20028;-62
2023/04/11 00:06:14;;;;;;;8.80;7.18;;;11.20;68.80;;;;;;5082882;28;20028;-63
2023/04/11 00:08:40;;;;;;;9.48;7.63;;;11.20;69.00;;;;;;5077360;28;20069;-63
2023/04/11 00:11:06;;;;;;;9.25;7.80;;;11.20;69.00;;;;;;5082986;28;20035;-63
2023/04/11 00:13:33;;;;;;;9.50;7.28;;;11.20;69.00;;;;;;5083606;28;20032;-63
2023/04/11 00:16:01;;;;;;;8.50;7.60;;;11.20;69.10;;;;;;5085577;28;20040;-63
2023/04/11 00:18:27;;;;;;;9.93;8.10;;;11.10;69.00;;;;;;5066570;28;20600;-62
2023/04/11 00:20:52;;;;;;;10.43;8.68;;;11.10;69.00;;;;;;5076249;28;20036;-63
2023/04/11 00:23:18;;;;;;;9.55;8.32;;;11.10;69.00;;;;;;5079548;28;20260;-62
2023/04/11 00:25:43;;;;;;;9.57;8.40;;;11.10;69.00;;;;;;5084404;28;20045;-63
2023/04/11 00:28:09;;;;;;;9.82;7.75;;;11.10;69.10;;;;;;5074358;28;20070;-63
2023/04/11 00:30:35;;;;;;;9.90;8.23;;;11.00;69.00;;;;;;5089530;28;20040;-61
2023/04/11 00:33:01;;;;;;;9.27;7.68;;;11.00;69.20;;;;;;5077852;28;20059;-61
2023/04/11 00:35:26;;;;;;;9.13;7.72;;;11.00;69.10;;;;;;5076106;28;20367;-61
2023/04/11 00:37:54;;;;;;;8.82;7.93;;;11.00;69.10;;;;;;5079303;28;20043;-61
2023/04/11 00:40:21;;;;;;;9.02;7.95;;;10.90;69.00;;;;;;5077153;28;20073;-63
2023/04/11 00:42:47;;;;;;;9.93;8.23;;;10.90;69.00;;;;;;5078006;28;20044;-63
2023/04/11 00:45:13;;;;;;;9.75;7.50;;;10.90;69.10;;;;;;5077428;28;20043;-63
2023/04/11 00:47:40;;;;;;;9.80;7.80;;;10.90;69.20;;;;;;5081532;28;21125;-63
2023/04/11 00:50:07;;;;;;;9.50;7.85;;;10.90;69.30;;;;;;5076578;28;20031;-63
2023/04/11 00:52:35;;;;;;;8.48;7.55;;;10.80;69.20;;;;;;5078638;28;20387;-63
2023/04/11 00:55:02;;;;;;;9.40;7.60;;;10.90;69.20;;;;;;5074279;28;20036;-63
2023/04/11 00:57:29;;;;;;;8.73;7.43;;;10.80;69.20;;;;;;5070168;28;20352;-63
2023/04/11 00:59:57;;;;;;;9.13;8.07;;;10.80;69.30;;;;;;5077708;28;20047;-63
2023/04/11 01:02:23;;;;;;;9.50;7.82;;;10.80;69.10;;;;;;5081792;28;20043;-62
2023/04/11 01:04:49;;;;;;;9.48;7.70;;;10.80;68.90;;;;;;5075134;28;20466;-63
2023/04/11 01:07:17;;;;;;;9.43;7.32;;;10.80;69.00;;;;;;5075104;28;20447;-63
2023/04/11 01:09:44;;;;;;;10.13;7.00;;;10.70;69.00;;;;;;5066742;28;20036;-62
2023/04/11 01:12:11;;;;;;;8.95;7.47;;;10.70;68.90;;;;;;5068533;28;20033;-62
2023/04/11 01:14:37;;;;;;;9.52;7.78;;;10.70;69.10;;;;;;5072391;28;20043;-63
2023/04/11 01:17:03;;;;;;;9.77;8.00;;;10.70;69.00;;;;;;5081906;28;20032;-62
2023/04/11 01:19:30;;;;;;;9.10;8.20;;;10.70;69.00;;;;;;5078414;28;20080;-63
2023/04/11 01:21:57;;;;;;;9.88;8.07;;;10.70;69.00;;;;;;5071549;28;20036;-63
2023/04/11 01:24:23;;;;;;;9.70;7.72;;;10.60;68.80;;;;;;5069079;28;20027;-63
2023/04/11 01:26:49;;;;;;;9.88;7.78;;;10.70;68.90;;;;;;5079915;28;20052;-63
2023/04/11 01:29:15;;;;;;;11.50;8.07;;;10.60;68.90;;;;;;5074440;28;20021;-63
2023/04/11 01:31:40;;;;;;;10.35;8.07;;;10.60;68.90;;;;;;5087211;28;20036;-63
2023/04/11 01:34:06;;;;;;;9.98;7.97;;;10.60;68.90;;;;;;5074452;28;20059;-63
2023/04/11 01:36:32;;;;;;;8.10;6.97;;;10.50;68.80;;;;;;5075895;28;20466;-63
2023/04/11 01:38:58;;;;;;;10.25;7.80;;;10.50;68.80;;;;;;5058352;28;20110;-63
2023/04/11 01:41:25;;;;;;;9.00;7.80;;;10.50;68.90;;;;;;5072446;28;20467;-62
2023/04/11 01:43:51;;;;;;;9.55;7.53;;;10.50;68.70;;;;;;5069448;28;20020;-63
2023/04/11 01:46:17;;;;;;;8.93;7.88;;;10.40;68.80;;;;;;5074420;28;20035;-63
2023/04/11 01:48:44;;;;;;;10.75;8.30;;;10.40;69.40;;;;;;5075439;28;20114;-63
2023/04/11 01:51:10;;;;;;;9.07;7.43;;;10.40;68.90;;;;;;5071065;28;20793;-62
2023/04/11 01:53:36;;;;;;;8.45;7.25;;;10.40;68.90;;;;;;5081824;28;20790;-63
2023/04/11 01:56:02;;;;;;;10.00;8.15;;;10.40;68.90;;;;;;5083681;28;20028;-63
2023/04/11 01:58:27;;;;;;;8.82;7.70;;;10.40;68.80;;;;;;5076176;28;20024;-63
2023/04/11 02:00:53;;;;;;;10.93;7.78;;;10.40;68.70;;;;;;5077776;28;20034;-63
2023/04/11 02:03:21;;;;;;;9.90;7.97;;;10.40;68.90;;;;;;5077410;28;20121;-62
2023/04/11 02:05:47;;;;;;;9.70;7.97;;;10.40;69.00;;;;;;5071747;28;20029;-63
2023/04/11 02:08:12;;;;;;;9.68;7.85;;;10.40;69.10;;;;;;5083094;28;20036;-63
2023/04/11 02:10:38;;;;;;;9.07;7.43;;;10.40;69.00;;;;;;5070115;28;20032;-63
2023/04/11 02:13:04;;;;;;;10.25;7.68;;;10.30;69.00;;;;;;5069990;28;20106;-63
2023/04/11 02:15:29;;;;;;;9.27;7.90;;;10.30;68.90;;;;;;5071125;28;20028;-62
2023/04/11 02:17:56;;;;;;;8.18;6.82;;;10.30;68.80;;;;;;5076622;28;20378;-63
2023/04/11 02:20:22;;;;;;;9.48;7.88;;;10.30;68.80;;;;;;5075250;28;20020;-62
2023/04/11 02:22:47;;;;;;;9.05;7.28;;;10.30;68.90;;;;;;5070519;28;20033;-63
2023/04/11 02:25:13;;;;;;;10.05;7.80;;;10.30;68.70;;;;;;5065580;28;20085;-63
2023/04/11 02:27:39;;;;;;;8.93;6.93;;;10.30;68.80;;;;;;5065853;28;20033;-63
2023/04/11 02:30:05;;;;;;;10.13;7.63;;;10.30;68.90;;;;;;5078755;28;20060;-62
2023/04/11 02:32:36;;;;;;;7.80;6.97;;;10.30;68.90;;;;;;5063953;28;20363;-63
2023/04/11 02:35:03;;;;;;;8.68;7.18;;;10.30;68.80;;;;;;5079482;28;20028;-64
2023/04/11 02:37:29;;;;;;;8.60;7.05;;;10.20;68.80;;;;;;5069802;28;20052;-63
2023/04/11 02:39:56;;;;;;;9.32;7.38;;;10.20;68.80;;;;;;5080069;28;20028;-63
2023/04/11 02:42:22;;;;;;;8.90;7.57;;;10.30;68.90;;;;;;5070920;28;20079;-63
2023/04/11 02:44:47;;;;;;;7.95;6.65;;;10.20;68.80;;;;;;5070170;28;20060;-63
2023/04/11 02:47:13;;;;;;;8.77;7.60;;;10.20;69.50;;;;;;5079587;28;20438;-63
2023/04/11 02:49:40;;;;;;;8.13;7.18;;;10.20;68.80;;;;;;5075501;28;20063;-64
2023/04/11 02:52:06;;;;;;;7.88;6.78;;;10.20;68.80;;;;;;5085111;28;20039;-57
2023/04/11 02:54:31;;;;;;;9.85;6.88;;;10.20;68.80;;;;;;5069311;28;20032;-57
2023/04/11 02:56:57;;;;;;;8.80;7.53;;;10.20;68.90;;;;;;5072993;28;20056;-56
2023/04/11 02:59:23;;;;;;;8.13;6.78;;;10.20;69.00;;;;;;5078669;28;20059;-57
2023/04/11 03:01:48;;;;;;;8.70;7.13;;;10.20;68.90;;;;;;5079472;28;20040;-55
2023/04/11 03:04:14;;;;;;;8.25;6.85;;;10.20;68.90;;;;;;5074839;28;20020;-56
2023/04/11 03:06:40;;;;;;;8.07;6.85;;;10.20;68.90;;;;;;5075866;28;20040;-55
2023/04/11 03:09:05;;;;;;;8.90;6.45;;;10.20;69.00;;;;;;5079452;28;20352;-56
2023/04/11 03:11:31;;;;;;;9.48;7.40;;;10.20;69.00;;;;;;5067295;28;20467;-62
2023/04/11 03:13:57;;;;;;;9.15;5.93;;;10.10;68.90;;;;;;5075067;28;20055;-62
2023/04/11 03:16:22;;;;;;;7.95;7.15;;;10.20;69.00;;;;;;5066241;28;20575;-61
2023/04/11 03:18:48;;;;;;;8.10;6.82;;;10.20;68.90;;;;;;5072073;28;20099;-61
2023/04/11 03:21:14;;;;;;;7.80;7.00;;;10.20;68.90;;;;;;5072060;28;20067;-61
2023/04/11 03:23:39;;;;;;;8.65;7.20;;;10.20;68.90;;;;;;5068474;28;20024;-61
2023/04/11 03:26:06;;;;;;;7.68;6.63;;;10.20;69.00;;;;;;5070445;28;20123;-61
2023/04/11 03:28:32;;;;;;;8.52;6.82;;;10.20;68.90;;;;;;5082073;28;20024;-61
2023/04/11 03:30:57;;;;;;;6.95;6.25;;;10.20;69.00;;;;;;5074855;28;20025;-61
2023/04/11 03:33:23;;;;;;;8.55;6.80;;;10.30;69.00;;;;;;5059740;28;20047;-61
2023/04/11 03:35:50;;;;;;;9.15;6.82;;;10.40;69.00;;;;;;5074526;28;20126;-61
2023/04/11 03:38:15;;;;;;;9.60;7.28;;;10.40;68.90;;;;;;5073500;28;20057;-61
2023/04/11 03:40:41;;;;;;;9.60;6.30;;;10.40;68.60;;;;;;5066861;28;20086;-61
2023/04/11 03:43:06;;;;;;;8.00;6.32;;;10.40;68.70;;;;;;5060419;28;20036;-61
2023/04/11 03:45:32;;;;;;;8.65;6.45;;;10.50;68.60;;;;;;5073316;28;20430;-61
2023/04/11 03:47:58;;;;;;;9.43;6.28;;;10.50;68.70;;;;;;5073922;28;20463;-61
2023/04/11 03:50:23;;;;;;;7.60;6.45;;;10.60;68.60;;;;;;5068610;28;20032;-61
2023/04/11 03:52:49;;;;;;;7.93;6.65;;;10.60;68.50;;;;;;5074839;28;20036;-61
2023/04/11 03:55:15;;;;;;;8.52;6.63;;;10.60;68.40;;;;;;5077188;28;20437;-62
2023/04/11 03:57:40;;;;;;;9.48;6.80;;;10.70;68.30;;;;;;5081328;28;20111;-62
2023/04/11 04:00:07;;;;;;;6.82;6.13;;;10.70;68.10;;;;;;5080284;28;20024;-61
2023/04/11 04:02:33;;;;;;;8.82;6.90;;;10.60;68.20;;;;;;5084047;28;20083;-62
2023/04/11 04:04:58;;;;;;;9.30;6.78;;;10.60;68.40;;;;;;5075582;28;20040;-62
2023/04/11 04:07:25;;;;;;;8.38;6.70;;;10.60;68.30;;;;;;5074823;28;20041;-62
2023/04/11 04:09:50;;;;;;;8.25;6.45;;;10.60;68.50;;;;;;5084005;28;20025;-62
2023/04/11 04:12:16;;;;;;;8.00;6.50;;;10.70;68.50;;;;;;5083981;28;20375;-61
2023/04/11 04:14:42;;;;;;;8.48;6.22;;;10.70;68.40;;;;;;5073178;28;20039;-61
2023/04/11 04:17:08;;;;;;;11.35;6.70;;;10.80;68.40;;;;;;5086800;28;20024;-62
2023/04/11 04:19:34;;;;;;;7.93;6.75;;;10.80;68.30;;;;;;5079382;28;20429;-62
2023/04/11 04:21:59;;;;;;;8.68;6.38;;;10.80;68.40;;;;;;5075269;28;20481;-62
2023/04/11 04:24:25;;;;;;;9.25;6.80;;;10.90;68.30;;;;;;5066903;28;20410;-62
2023/04/11 04:26:52;;;;;;;8.65;6.32;;;11.00;68.20;;;;;;5074349;28;20068;-61
2023/04/11 04:29:17;;;;;;;8.18;6.45;;;11.00;68.00;;;;;;5078311;28;20119;-62
2023/04/11 04:31:43;;;;;;;7.05;5.78;;;11.10;68.30;;;;;;5070746;28;20431;-62
2023/04/11 04:34:09;;;;;;;8.27;6.45;;;11.10;68.10;;;;;;5080678;28;20101;-64
2023/04/11 04:36:45;;;;;;;7.38;6.57;;;11.20;68.00;;;;;;5074656;28;20126;-62
2023/04/11 04:39:17;;;;;;;7.40;5.95;;;11.20;67.70;;;;;;5074311;28;20119;-61
2023/04/11 04:41:56;;;;;;;9.25;6.28;;;11.30;67.60;;;;;;5067129;28;20032;-62
2023/04/11 04:44:23;;;;;;;7.43;5.90;;;11.40;67.40;;;;;;5077045;28;20028;-62
2023/04/11 04:46:53;;;;;;;6.95;5.82;;;11.50;67.30;;;;;;5076105;28;20100;-61
2023/04/11 04:49:19;;;;;;;6.85;5.20;;;11.60;67.00;;;;;;5066498;28;20032;-62
2023/04/11 04:51:44;;;;;;;7.75;6.07;;;11.70;66.90;;;;;;5067534;28;20621;-63
2023/04/11 04:54:10;;;;;;;8.68;6.22;;;11.80;66.70;;;;;;5088990;28;20389;-63
2023/04/11 04:56:36;;;;;;;6.55;5.60;;;11.80;66.60;;;;;;5065940;28;20089;-63
2023/04/11 04:59:02;;;;;;;7.20;5.93;;;11.80;66.70;;;;;;5069223;28;20359;-61
2023/04/11 05:01:27;;;;;;;7.15;5.65;;;11.80;66.80;;;;;;5059565;28;20083;-64
2023/04/11 05:03:57;;;;;;;8.05;5.68;;;11.80;66.80;;;;;;5071407;28;20037;-64
2023/04/11 05:06:30;;;;;;;8.38;6.30;;;11.90;66.80;;;;;;5073895;28;20033;-63
2023/04/11 05:08:57;;;;;;;7.40;5.93;;;11.90;66.80;;;;;;5072314;28;20091;-63
2023/04/11 05:11:24;;;;;;;9.23;6.03;;;11.90;66.80;;;;;;5074847;28;20025;-63
2023/04/11 05:13:49;;;;;;;7.45;5.78;;;12.00;66.70;;;;;;5076555;28;20336;-63
2023/04/11 05:16:16;;;;;;;6.35;5.15;;;12.00;66.50;;;;;;5065532;28;20035;-63
2023/04/11 05:18:42;;;;;;;6.40;5.60;;;12.10;66.30;;;;;;5079706;28;20063;-63
2023/04/11 05:21:07;;;;;;;6.43;5.10;;;12.20;66.20;;;;;;5064738;28;20115;-64
2023/04/11 05:23:33;;;;;;;6.53;5.60;;;12.20;66.10;;;;;;5066539;28;20932;-63
2023/04/11 05:26:00;;;;;;;7.70;6.15;;;12.20;66.00;;;;;;5063453;28;20118;-63
2023/04/11 05:28:25;;;;;;;8.40;5.47;;;12.30;65.90;;;;;;5063669;28;20521;-65
2023/04/11 05:30:51;;;;;;;6.35;4.93;;;12.30;65.70;;;;;;5064974;28;20035;-64
2023/04/11 05:33:17;;;;;;;6.70;5.55;;;12.40;65.80;;;;;;5072280;28;20086;-65
2023/04/11 05:35:43;;;;;;;7.43;5.20;;;12.40;65.80;;;;;;5075716;28;20028;-63
2023/04/11 05:38:08;;;;;;;6.13;5.40;;;12.40;65.70;;;;;;5064042;28;20482;-63
2023/04/11 05:40:35;;;;;;;7.22;5.38;;;12.40;65.80;;;;;;5067123;28;20524;-62
2023/04/11 05:43:01;;;;;;;6.93;5.18;;;12.40;66.00;;;;;;5070351;28;20028;-64
2023/04/11 05:45:27;;;;;;;6.88;5.80;;;12.50;65.90;;;;;;5061672;28;20659;-64
2023/04/11 05:47:53;;;;;;;7.13;5.60;;;12.50;66.00;;;;;;5066221;28;20059;-64
2023/04/11 05:50:18;;;;;;;6.85;5.13;;;12.50;66.00;;;;;;5059610;28;20387;-64
2023/04/11 05:52:44;;;;;;;6.18;5.18;;;12.60;66.10;;;;;;5061365;28;20033;-64
2023/04/11 05:55:10;;;;;;;8.50;5.43;;;12.60;66.00;;;;;;5066593;28;20025;-62
2023/04/11 05:57:36;;;;;;;7.07;5.40;;;12.60;65.90;;;;;;5060837;28;20032;-64
2023/04/11 06:00:07;;;;;;;6.88;5.30;;;12.60;66.10;;;;;;5059847;28;20554;-63
2023/04/11 06:02:33;;;;;;;6.20;5.50;;;12.70;66.10;;;;;;5048549;28;20037;-63
2023/04/11 06:05:00;;;;;;;5.65;4.68;;;12.70;66.10;;;;;;5049744;28;20048;-64
2023/04/11 06:07:26;;;;;;;5.38;4.70;;;12.70;65.90;;;;;;5050066;28;20040;-63
2023/04/11 06:09:52;;;;;;;6.97;5.55;;;12.80;65.90;;;;;;5053318;28;20056;-63
2023/04/11 06:12:17;;;;;;;6.60;5.43;;;12.90;66.10;;;;;;5055765;28;20123;-63
2023/04/11 06:14:43;;;;;;;5.85;5.25;;;12.90;65.90;;;;;;5054048;28;20032;-63
2023/04/11 06:17:09;;;;;;;5.93;5.00;;;12.90;66.10;;;;;;5051118;28;20040;-63
2023/04/11 06:19:34;;;;;;;6.28;5.03;;;13.00;66.10;;;;;;5044469;28;20802;-63
2023/04/11 06:22:00;;;;;;;5.43;4.82;;;13.10;66.20;;;;;;5049630;28;20232;-62
2023/04/11 06:24:39;;;;;;;6.47;5.00;;;13.20;66.10;;;;;;5042599;28;20051;-63
2023/04/11 06:27:08;;;;;;;8.98;5.32;;;13.40;66.10;;;;;;5047808;28;20049;-62
2023/04/11 06:29:34;;;;;;;8.32;5.20;;;13.40;65.80;;;;;;5045356;28;20033;-62
2023/04/11 06:32:00;;;;;;;6.47;4.97;;;13.50;65.80;;;;;;5046065;28;20040;-63
2023/04/11 06:34:26;;;;;;;5.72;4.78;;;13.60;65.90;;;;;;5042577;28;20038;-63
2023/04/11 06:36:52;;;;;;;6.28;5.07;;;13.60;65.90;;;;;;5042422;28;20124;-63
2023/04/11 06:39:18;;;;;;;5.18;4.18;;;13.70;65.90;;;;;;5049663;28;20028;-61
2023/04/11 06:41:45;;;;;;;6.05;4.75;;;13.80;65.90;;;;;;5047657;28;20387;-61
2023/04/11 06:44:11;;;;;;;5.60;4.57;;;13.90;66.00;;;;;;5046944;28;20037;-61
2023/04/11 06:46:37;;;;;;;6.80;4.93;;;14.00;65.80;;;;;;5047273;28;20121;-62
2023/04/11 06:49:06;;;;;;;7.68;4.93;;;14.10;65.80;;;;;;5051952;28;20533;-61
2023/04/11 06:51:34;;;;;;;8.18;5.32;;;14.20;65.60;;;;;;5042677;28;20040;-62
2023/04/11 06:54:01;;;;;;;5.97;4.70;;;14.30;65.60;;;;;;5019294;28;21210;-62
2023/04/11 06:56:26;;;;;;;6.10;4.82;;;14.30;65.50;;;;;;5036895;28;20037;-62
2023/04/11 06:58:52;;;;;;;6.75;4.43;;;14.40;65.40;;;;;;5050557;28;20029;-61
2023/04/11 07:01:19;;;;;;;6.10;4.65;;;14.50;65.30;;;;;;5045348;28;20126;-63
2023/04/11 07:03:48;;;;;;;5.93;4.82;;;14.50;65.20;;;;;;5053331;28;20130;-62
2023/04/11 07:06:15;;;;;;;6.18;4.72;;;14.50;65.10;;;;;;5043031;28;20041;-62
2023/04/11 07:08:40;;;;;;;5.95;4.50;;;14.60;65.10;;;;;;5043019;28;20046;-64
2023/04/11 07:11:06;;;;;;;6.00;4.20;;;14.60;65.20;;;;;;5040548;28;20677;-62
2023/04/11 07:13:32;;;;;;;6.38;4.65;;;14.60;65.30;;;;;;5043350;28;20037;-62
2023/04/11 07:15:58;;;;;;;5.65;4.40;;;14.70;65.50;;;;;;5044617;28;20029;-63
2023/04/11 07:18:24;;;;;;;6.45;5.05;;;14.80;65.70;;;;;;5046975;28;20017;-63
2023/04/11 07:20:51;;;;;;;5.28;4.35;;;14.90;65.70;;;;;;5033569;28;20040;-64
2023/04/11 07:23:17;;;;;;;5.63;4.47;;;14.90;65.80;;;;;;5041979;28;20031;-63
2023/04/11 07:25:43;;;;;;;6.53;4.32;;;15.00;65.70;;;;;;5051786;28;21104;-63
2023/04/11 07:28:10;;;;;;;5.35;4.03;;;15.00;65.50;;;;;;5049088;28;20047;-63
2023/04/11 07:30:36;;;;;;;4.43;3.88;;;15.10;65.30;;;;;;5039928;28;20057;-63
2023/04/11 07:33:02;;;;;;;5.28;4.07;;;15.20;65.20;;;;;;5047610;28;20136;-64
2023/04/11 07:35:28;;;;;;;5.47;3.83;;;15.10;64.90;;;;;;5048141;28;20082;-64
2023/04/11 07:37:56;;;;;;;5.05;4.05;;;15.10;64.70;;;;;;5047771;28;20036;-63
2023/04/11 07:40:22;;;;;;;4.63;3.92;;;15.10;64.60;;;;;;5041575;28;20029;-62
2023/04/11 07:42:47;;;;;;;5.07;4.18;;;15.00;64.50;;;;;;5043967;28;20071;-63
2023/04/11 07:45:13;;;;;;;5.28;4.05;;;15.00;64.60;;;;;;5051608;28;20028;-62
2023/04/11 07:47:38;;;;;;;5.32;4.03;;;15.00;64.70;;;;;;5040741;28;20056;-64
2023/04/11 07:50:05;;;;;;;6.07;4.25;;;15.00;64.70;;;;;;5042386;28;20065;-62
2023/04/11 07:52:31;;;;;;;4.88;3.83;;;15.00;64.60;;;;;;5042912;28;20123;-62
2023/04/11 07:54:57;;;;;;;4.80;3.70;;;15.00;64.60;;;;;;5035396;28;20024;-63
2023/04/11 07:57:22;;;;;;;4.32;3.60;;;14.90;64.50;;;;;;5029319;28;20033;-64
2023/04/11 07:59:48;;;;;;;4.20;3.50;;;14.90;64.60;;;;;;5024998;28;20039;-63
2023/04/11 08:02:13;;;;;;;4.25;3.65;;;14.90;64.50;;;;;;5027631;28;20036;-63
2023/04/11 08:04:39;;;;;;;4.28;3.83;;;15.00;64.70;;;;;;5042611;28;24655;-64
2023/04/11 08:07:05;;;;;;;4.68;3.97;;;15.00;64.80;;;;;;5043622;28;20560;-63
2023/04/11 08:09:31;;;;;;;5.00;4.13;;;15.00;64.60;;;;;;5037565;28;20052;-64
2023/04/11 08:11:57;;;;;;;5.50;3.78;;;15.10;64.60;;;;;;5033321;28;20032;-64
2023/04/11 08:14:23;;;;;;;5.72;4.00;;;15.10;64.60;;;;;;5042275;28;20114;-64
2023/04/11 08:16:49;;;;;;;4.13;3.50;;;15.20;64.50;;;;;;5040561;28;20043;-64
2023/04/11 08:19:16;;;;;;;5.03;3.55;;;15.20;64.50;;;;;;5039262;28;20479;-64
2023/04/11 08:21:41;;;;;;;5.13;3.70;;;15.20;64.50;;;;;;5020819;28;20759;-64
2023/04/11 08:24:07;;;;;;;5.10;4.13;;;15.20;64.40;;;;;;5028848;28;20040;-63
2023/04/11 08:26:33;;;;;;;4.78;3.50;;;15.20;64.50;;;;;;5025064;28;20084;-64
2023/04/11 08:28:59;;;;;;;4.90;3.55;;;15.20;64.20;;;;;;5027990;28;20113;-63
2023/04/11 08:31:25;;;;;;;5.03;3.60;;;15.30;64.30;;;;;;5021984;28;20032;-63
2023/04/11 08:33:51;;;;;;;3.92;3.28;;;15.30;64.20;;;;;;5032163;28;20037;-63
2023/04/11 08:36:17;;;;;;;4.60;3.50;;;15.30;64.00;;;;;;5037961;28;20135;-64
2023/04/11 08:38:42;;;;;;;4.22;3.42;;;15.40;64.10;;;;;;5043672;28;20080;-64
2023/04/11 08:41:08;;;;;;;5.40;3.65;;;15.50;64.10;;;;;;5043938;28;20115;-62
2023/04/11 08:43:43;;;;;;;5.80;3.90;;;15.50;64.00;;;;;;5040668;28;20047;-64
2023/04/11 08:46:08;;;;;;;4.00;3.33;;;15.50;63.90;;;;;;5042053;28;21138;-65
2023/04/11 08:48:34;;;;;;;4.68;3.22;;;15.60;64.20;;;;;;5036731;28;20033;-63
2023/04/11 08:51:00;;;;;;;7.38;3.92;;;15.70;64.00;;;;;;5038136;28;20062;-61
2023/04/11 08:53:28;;;;;;;4.57;3.55;;;15.70;63.70;;;;;;5025802;28;20039;-63
2023/04/11 08:55:53;;;;;;;5.18;3.70;;;15.80;64.00;;;;;;5046163;28;20032;-62
2023/04/11 08:58:19;;;;;;;4.65;3.33;;;15.80;63.80;;;;;;5042188;28;20040;-63
2023/04/11 09:00:45;;;;;;;4.03;3.30;;;15.90;63.70;;;;;;5049263;28;20722;-63
2023/04/11 09:03:16;;;;;;;4.50;3.42;;;16.00;63.70;;;;;;5051704;28;20040;-61
2023/04/11 09:05:47;;;;;;;3.83;3.47;;;16.00;63.50;;;;;;5034649;28;20154;-64
2023/04/11 09:08:14;;;;;;;6.13;3.72;;;15.90;63.20;;;;;;5041527;28;22531;-64
2023/04/11 09:10:46;;;;;;;4.53;3.42;;;16.00;63.20;;;;;;5048507;28;20166;-62
2023/04/11 09:13:25;;;;;;;3.72;3.33;;;15.90;63.00;;;;;;5051245;28;20044;-64
2023/04/11 09:16:23;;;;;;;5.20;3.65;;;16.00;63.00;;;;;;5041036;28;20028;-63
2023/04/11 09:18:49;;;;;;;4.40;3.55;;;15.90;63.30;;;;;;5041224;28;20059;-63
2023/04/11 09:21:15;;;;;;;5.03;3.38;;;15.90;62.70;;;;;;5045129;28;20028;-62
2023/04/11 09:23:42;;;;;;;4.80;3.33;;;15.90;62.70;;;;;;5048475;28;20063;-63
2023/04/11 09:26:09;;;;;;;4.95;3.38;;;15.80;62.60;;;;;;5046003;28;20114;-62
2023/04/11 09:28:52;;;;;;;6.80;3.45;;;15.80;62.50;;;;;;5048111;28;20028;-62
2023/04/11 09:31:18;;;;;;;4.18;3.25;;;15.80;62.40;;;;;;5039346;28;20567;-62
2023/04/11 09:33:58;;;;;;;3.92;3.38;;;15.80;62.40;;;;;;5045232;28;20028;-63
2023/04/11 09:36:26;;;;;;;4.30;3.42;;;15.80;62.20;;;;;;5048608;28;20033;-62
2023/04/11 09:38:52;;;;;;;3.67;3.00;;;15.80;62.20;;;;;;5045525;28;20020;-62
2023/04/11 09:41:37;;;;;;;5.10;3.65;;;15.80;62.10;;;;;;5054976;28;20028;-63
2023/04/11 09:44:03;;;;;;;3.92;3.30;;;15.80;62.00;;;;;;5047175;28;20406;-62
2023/04/11 09:46:29;;;;;;;3.80;3.40;;;15.80;62.10;;;;;;5045957;28;20040;-63
2023/04/11 09:48:55;;;;;;;3.40;3.10;;;15.80;61.90;;;;;;5050092;28;20178;-62
2023/04/11 09:51:21;;;;;;;3.53;3.17;;;15.80;61.60;;;;;;5050348;28;20054;-63
2023/04/11 09:53:47;;;;;;;4.53;3.40;;;15.80;61.40;;;;;;5042884;28;20236;-63
2023/04/11 09:56:13;;;;;;;4.85;3.47;;;15.80;61.40;;;;;;5045220;28;20493;-64
2023/04/11 09:58:40;;;;;;;4.05;3.10;;;15.80;61.40;;;;;;5039026;28;20036;-64
2023/04/11 10:01:08;;;;;;;3.80;3.40;;;15.80;61.10;;;;;;5045647;28;20607;-63
2023/04/11 10:03:38;;;;;;;3.58;3.08;;;15.90;61.10;;;;;;5052408;28;20051;-65
2023/04/11 10:06:21;;;;;;;4.65;3.67;;;15.90;61.00;;;;;;5053438;28;20534;-63
2023/04/11 10:08:49;;;;;;;5.05;3.20;;;15.90;61.10;;;;;;5054654;28;20028;-61
2023/04/11 10:11:19;;;;;;;3.33;3.03;;;15.90;61.10;;;;;;5056831;28;20140;-61
2023/04/11 10:13:45;;;;;;;5.95;3.40;;;16.00;61.20;;;;;;5049431;28;20047;-62
2023/04/11 10:16:14;;;;;;;3.50;3.20;;;16.00;61.20;;;;;;5043111;28;20032;-62
2023/04/11 10:18:51;;;;;;;4.35;3.35;;;16.00;61.10;;;;;;5040120;28;20090;-61
2023/04/11 10:21:29;;;;;;;3.63;3.00;;;16.00;61.20;;;;;;5057314;28;20459;-61
2023/04/11 10:24:16;;;;;;;3.92;3.40;;;16.00;61.10;;;;;;5047982;28;20041;-61
2023/04/11 10:26:59;;;;;;;3.42;2.38;;;16.00;60.80;;;;;;5046754;28;20072;-63
2023/04/11 10:29:28;;;;;;;4.28;3.00;;;16.00;60.60;;;;;;5045345;28;20094;-62
2023/04/11 10:32:21;;;;;;;2.63;2.42;;;16.00;60.50;;;;;;5051070;28;20044;-61
2023/04/11 10:34:52;;;;;;;3.55;3.08;;;15.90;60.40;;;;;;5056492;28;20049;-62
2023/04/11 10:37:34;;;;;;;4.22;3.05;;;15.90;60.40;;;;;;5053285;28;20081;-62
2023/04/11 10:40:11;;;;;;;3.58;3.08;;;15.90;60.40;;;;;;5061883;28;20535;-62
2023/04/11 10:42:41;;;;;;;3.55;3.10;;;15.80;60.20;;;;;;5049077;28;20059;-61
2023/04/11 10:45:16;;;;;;;4.72;3.42;;;15.80;60.40;;;;;;5050181;28;20023;-61
2023/04/11 10:47:58;;;;;;;3.50;3.20;;;15.80;60.70;;;;;;5047883;28;20036;-61
2023/04/11 10:50:33;;;;;;;3.42;2.92;;;15.80;60.80;;;;;;5041823;28;20124;-61
2023/04/11 10:53:00;;;;;;;4.03;2.92;;;15.80;60.90;;;;;;5033191;28;20170;-61
2023/04/11 10:55:27;;;;;;;3.92;2.92;;;15.80;60.90;;;;;;5051995;28;20051;-61
2023/04/11 10:58:09;;;;;;;2.83;2.50;;;15.90;60.90;;;;;;5045081;28;20064;-62
2023/04/11 11:00:48;;;;;;;3.75;3.00;;;15.90;61.00;;;;;;5038545;28;20029;-62
2023/04/11 11:03:24;;;;;;;3.20;2.60;;;15.90;60.80;;;;;;5037289;28;20697;-62
2023/04/11 11:06:02;;;;;;;3.90;3.00;;;15.90;60.50;;;;;;5047951;28;20559;-63
2023/04/11 11:08:33;;;;;;;3.30;2.80;;;15.90;60.30;;;;;;5049037;28;20071;-62
2023/04/11 11:11:01;;;;;;;3.03;2.75;;;15.90;60.20;;;;;;5044759;28;20570;-62
2023/04/11 11:13:40;;;;;;;5.38;2.75;;;15.90;60.20;;;;;;5045053;28;20037;-62
2023/04/11 11:16:07;;;;;;;3.97;2.95;;;15.90;60.30;;;;;;5045902;28;20041;-61
2023/04/11 11:18:33;;;;;;;2.83;2.53;;;15.90;60.50;;;;;;5042235;28;21109;-60
2023/04/11 11:20:59;;;;;;;2.78;2.55;;;15.80;60.60;;;;;;5051926;28;20039;-61
2023/04/11 11:23:26;;;;;;;2.72;2.53;;;15.80;60.40;;;;;;5052411;28;20118;-62
2023/04/11 11:25:53;;;;;;;3.05;2.75;;;15.80;60.40;;;;;;5046331;28;20044;-61
2023/04/11 11:28:19;;;;;;;3.17;2.70;;;15.70;60.30;;;;;;5044293;28;20028;-62
2023/04/11 11:30:53;;;;;;;3.30;2.55;;;15.70;60.40;;;;;;5042097;28;20070;-62
2023/04/11 11:33:20;;;;;;;3.17;2.88;;;15.70;60.50;;;;;;5042627;28;20047;-62
2023/04/11 11:36:03;;;;;;;3.45;3.05;;;15.70;60.50;;;;;;5043316;28;20115;-62
2023/04/11 11:38:29;;;;;;;4.80;3.10;;;15.80;60.40;;;;;;5044777;28;20928;-60
2023/04/11 11:40:57;;;;;;;3.30;2.88;;;15.80;60.30;;;;;;5053377;28;20120;-61
2023/04/11 11:43:24;;;;;;;2.78;2.53;;;15.80;60.20;;;;;;5038143;28;20036;-62
2023/04/11 11:46:14;;;;;;;3.30;3.00;;;15.80;60.30;;;;;;5038610;28;20036;-62
2023/04/11 11:48:57;;;;;;;3.53;2.70;;;15.90;60.50;;;;;;5043421;28;20148;-62
2023/04/11 11:51:23;;;;;;;3.72;2.80;;;15.90;60.40;;;;;;5044543;28;20044;-62
2023/04/11 11:54:07;;;;;;;3.38;2.65;;;15.90;60.30;;;;;;5038005;28;20044;-63
2023/04/11 11:56:33;;;;;;;6.68;2.65;;;15.90;60.00;;;;;;5032215;28;20140;-62
2023/04/11 11:58:59;;;;;;;3.80;2.53;;;16.00;60.10;;;;;;5037811;28;21057;-62
2023/04/11 12:01:24;;;;;;;3.50;2.75;;;16.00;60.00;;;;;;5027703;28;20041;-61
2023/04/11 12:03:52;;;;;;;3.60;2.33;;;16.00;59.60;;;;;;5033865;28;20134;-62
2023/04/11 12:06:19;;;;;;;3.85;2.40;;;16.00;59.60;;;;;;5026556;28;20036;-62
2023/04/11 12:08:50;;;;;;;3.30;3.00;;;16.00;59.30;;;;;;5047089;28;20455;-60
2023/04/11 12:11:17;;;;;;;3.15;2.60;;;16.00;59.20;;;;;;5044160;28;20395;-62
2023/04/11 12:13:44;;;;;;;3.08;2.70;;;16.00;58.90;;;;;;5032715;28;20110;-61
2023/04/11 12:16:12;;;;;;;4.15;2.95;;;16.00;58.80;;;;;;5036536;28;20036;-61
2023/04/11 12:18:41;;;;;;;3.28;2.80;;;16.00;58.30;;;;;;5042988;28;20021;-62
2023/04/11 12:21:06;;;;;;;4.13;2.90;;;16.10;58.00;;;;;;5036579;28;20526;-62
2023/04/11 12:23:32;;;;;;;3.25;2.90;;;16.10;58.00;;;;;;5042297;28;20045;-62
2023/04/11 12:25:58;;;;;;;3.45;2.80;;;16.10;58.10;;;;;;5044647;28;20056;-62
2023/04/11 12:28:23;;;;;;;3.20;2.80;;;16.10;58.00;;;;;;5044155;28;20116;-61
2023/04/11 12:30:49;;;;;;;3.17;2.75;;;16.10;58.00;;;;;;5049408;28;20041;-61
2023/04/11 12:33:15;;;;;;;4.68;3.10;;;16.10;58.10;;;;;;5045332;28;20045;-62
2023/04/11 12:35:40;;;;;;;3.15;2.65;;;16.10;58.40;;;;;;5048995;28;20124;-62
2023/04/11 12:38:06;;;;;;;4.07;2.60;;;16.10;58.20;;;;;;5043510;28;20039;-60
2023/04/11 12:40:32;;;;;;;3.20;2.83;;;16.00;58.00;;;;;;5042069;28;20930;-61
2023/04/11 12:42:58;;;;;;;3.85;3.00;;;16.00;57.80;;;;;;5042189;28;20104;-61
2023/04/11 12:45:25;;;;;;;3.20;2.80;;;16.00;58.60;;;;;;5052092;28;20036;-62
2023/04/11 12:47:50;;;;;;;3.83;2.60;;;16.00;58.20;;;;;;5046800;28;20032;-62